Home > Products > Valid Products > TAF

000
FTUS42 KMLB 282102 AAB
TAFMCO
TAF AMD
KMCO 282102Z 2821/2918 29011G19KT P6SM SCT250
     FM290000 30006KT P6SM FEW250=



000
FTUS42 KMLB 281945 AAA
TAFMCO
TAF AMD
KMCO 281945Z 2820/2918 29011G19KT P6SM SCT250
     FM290000 30006KT P6SM FEW250=



000
FTUS42 KMLB 281944 AAA
TAFMLB
TAF AMD
KMLB 281944Z 2820/2918 30013G21KT P6SM SCT250
     FM290000 30006KT P6SM FEW250=



000
FTUS42 KMLB 281944 AAA
TAFMLB
TAF AMD
KMLB 281944Z 2820/2918 30013G21KT P6SM SCT250
     FM290000 30006KT P6SM FEW250=



000
FTUS42 KMLB 281722
TAFMCO
TAF
KMCO 281722Z 2818/2918 32011KT P6SM SCT250
     FM290000 30006KT P6SM FEW250=



000
FTUS42 KMLB 281722
TAFDAB
TAF
KDAB 281722Z 2818/2918 31011KT P6SM SCT250
     FM282300 29005KT P6SM FEW250=



000
FTUS42 KMLB 281722
TAFVRB
TAF
KVRB 281722Z 2818/2918 32011G18KT P6SM SCT250
     FM282300 30006KT P6SM FEW250=



000
FTUS42 KMLB 281722
TAFMLB
TAF
KMLB 281722Z 2818/2918 31011KT P6SM SCT250
     FM282300 30006KT P6SM FEW250=



000
FTUS42 KMLB 281722
TAFMCO
TAF
KMCO 281722Z 2818/2918 32011KT P6SM SCT250
     FM290000 30006KT P6SM FEW250=



000
FTUS42 KMLB 281722
TAFVRB
TAF
KVRB 281722Z 2818/2918 32011G18KT P6SM SCT250
     FM282300 30006KT P6SM FEW250=



000
FTUS42 KMLB 281722
TAFDAB
TAF
KDAB 281722Z 2818/2918 31011KT P6SM SCT250
     FM282300 29005KT P6SM FEW250=



000
FTUS42 KMLB 281722
TAFMLB
TAF
KMLB 281722Z 2818/2918 31011KT P6SM SCT250
     FM282300 30006KT P6SM FEW250=



000
FTUS42 KMLB 281722
TAFSFB
TAF
KSFB 281722Z 2818/2918 31011KT P6SM SCT250
     FM290000 30005KT P6SM FEW250=



000
FTUS42 KMLB 281722
TAFSFB
TAF
KSFB 281722Z 2818/2918 31011KT P6SM SCT250
     FM290000 30005KT P6SM FEW250=



000
FTUS42 KMLB 281500 AAA
TAFMCO
TAF AMD
KMCO 281500Z 2815/2912 32012G18KT P6SM SCT250
     FM290000 30007KT P6SM FEW250=



000
FTUS42 KMLB 281500 AAA
TAFMCO
TAF AMD
KMCO 281500Z 2815/2912 32012G18KT P6SM SCT250
     FM290000 30007KT P6SM FEW250=



000
FTUS42 KMLB 281129
TAFDAB
TAF
KDAB 281129Z 2812/2912 29006KT P6SM SCT250
     FM281500 31012G18KT P6SM SCT250
     FM282300 29005KT P6SM FEW250=



000
FTUS42 KMLB 281129
TAFSFB
TAF
KSFB 281129Z 2812/2912 31010KT P6SM SCT250
     FM281500 32012G18KT P6SM SCT250
     FM290000 30005KT P6SM FEW250=



000
FTUS42 KMLB 281129
TAFMCO
TAF
KMCO 281129Z 2812/2912 31010KT P6SM SCT250
     FM281500 32012G18KT P6SM SCT250
     FM290000 30007KT P6SM FEW250=



000
FTUS42 KMLB 281129
TAFMLB
TAF
KMLB 281129Z 2812/2912 31009KT P6SM SCT250
     FM281500 32013G20KT P6SM SCT250
     FM282300 30007KT P6SM FEW250=



000
FTUS42 KMLB 281129
TAFVRB
TAF
KVRB 281129Z 2812/2912 33010KT P6SM BKN250
     FM281400 32013G20KT P6SM SCT250
     FM282300 30007KT P6SM FEW250=



000
FTUS42 KMLB 281129
TAFDAB
TAF
KDAB 281129Z 2812/2912 29006KT P6SM SCT250
     FM281500 31012G18KT P6SM SCT250
     FM282300 29005KT P6SM FEW250=



000
FTUS42 KMLB 281129
TAFSFB
TAF
KSFB 281129Z 2812/2912 31010KT P6SM SCT250
     FM281500 32012G18KT P6SM SCT250
     FM290000 30005KT P6SM FEW250=



000
FTUS42 KMLB 281129
TAFVRB
TAF
KVRB 281129Z 2812/2912 33010KT P6SM BKN250
     FM281400 32013G20KT P6SM SCT250
     FM282300 30007KT P6SM FEW250=



000
FTUS42 KMLB 281129
TAFMCO
TAF
KMCO 281129Z 2812/2912 31010KT P6SM SCT250
     FM281500 32012G18KT P6SM SCT250
     FM290000 30007KT P6SM FEW250=



000
FTUS42 KMLB 281129
TAFMLB
TAF
KMLB 281129Z 2812/2912 31009KT P6SM SCT250
     FM281500 32013G20KT P6SM SCT250
     FM282300 30007KT P6SM FEW250=



000
FTUS42 KMLB 280858 AAA
TAFMCO
TAF AMD
KMCO 280858Z 2809/2906 32008KT P6SM OVC250
     FM281200 32011KT P6SM SCT250
     FM281800 30012G18KT P6SM SKC
     FM282200 30011KT P6SM FEW250=



000
FTUS42 KMLB 280618 AAA
TAFVRB
TAF AMD
KVRB 280618Z 2806/2906 31012KT P6SM SKC
     FM281800 32013G19KT P6SM SKC
     FM282100 32012KT P6SM SKC=



000
FTUS42 KMLB 280535
TAFMCO
TAF
KMCO 280535Z 2806/2906 31012KT P6SM FEW020 SCT250
     FM280800 32011KT P6SM SCT250
     FM281800 30012G18KT P6SM SKC
     FM282200 30011KT P6SM FEW250=



000
FTUS42 KMLB 280535
TAFSFB
TAF
KSFB 280535Z 2806/2906 31012KT P6SM SKC
     FM280700 32011KT P6SM SCT250
     FM281800 31012G18KT P6SM SKC
     FM282200 30011KT P6SM FEW250=



000
FTUS42 KMLB 280535
TAFMLB
TAF
KMLB 280535Z 2806/2906 29011KT P6SM SKC
     FM281800 32013G19KT P6SM SKC
     FM282100 32012KT P6SM SKC=



000
FTUS42 KMLB 280535
TAFDAB
TAF
KDAB 280535Z 2806/2906 29010KT P6SM FEW200
     FM280800 32011KT P6SM SCT250
     FM281800 31012G18KT P6SM SKC
     FM282200 30011KT P6SM FEW250=



000
FTUS42 KMLB 280535
TAFVRB
TAF
KVRB 280535Z 2806/2906 30018G23KT P6SM SKC
     FM281800 32013G19KT P6SM SKC
     FM282100 32012KT P6SM SKC=



000
FTUS42 KMLB 280535
TAFMLB
TAF
KMLB 280535Z 2806/2906 29011KT P6SM SKC
     FM281800 32013G19KT P6SM SKC
     FM282100 32012KT P6SM SKC=



000
FTUS42 KMLB 280535
TAFDAB
TAF
KDAB 280535Z 2806/2906 29010KT P6SM FEW200
     FM280800 32011KT P6SM SCT250
     FM281800 31012G18KT P6SM SKC
     FM282200 30011KT P6SM FEW250=



000
FTUS42 KMLB 280535
TAFVRB
TAF
KVRB 280535Z 2806/2906 30018G23KT P6SM SKC
     FM281800 32013G19KT P6SM SKC
     FM282100 32012KT P6SM SKC=



000
FTUS42 KMLB 280535
TAFMCO
TAF
KMCO 280535Z 2806/2906 31012KT P6SM FEW020 SCT250
     FM280800 32011KT P6SM SCT250
     FM281800 30012G18KT P6SM SKC
     FM282200 30011KT P6SM FEW250=



000
FTUS42 KMLB 280535
TAFSFB
TAF
KSFB 280535Z 2806/2906 31012KT P6SM SKC
     FM280700 32011KT P6SM SCT250
     FM281800 31012G18KT P6SM SKC
     FM282200 30011KT P6SM FEW250=



000
FTUS42 KMLB 280310 AAD
TAFMLB
TAF AMD
KMLB 280310Z 2803/2824 27011KT P6SM SCT016 BKN026 OVC050
     FM280500 31014G22KT P6SM BKN250
     FM281800 32013G19KT P6SM SKC
     FM282100 32012KT P6SM SKC=



000
FTUS42 KMLB 280309 AAC
TAFMCO
TAF AMD
KMCO 280309Z 2803/2824 28013KT P6SM FEW020 BKN140 OVC250
     FM280800 32011KT P6SM SCT250
     FM281800 30012G18KT P6SM SKC
     FM282200 30011KT P6SM FEW250=



000
FTUS42 KMLB 280140 AAC
TAFMLB
TAF AMD
KMLB 280140Z 2802/2824 27013KT P6SM VCSH BKN010 OVC200
     FM280300 26013KT P6SM SCT025 BKN150
     FM280500 31014G22KT P6SM BKN250
     FM281800 32013G19KT P6SM SKC
     FM282100 32012KT P6SM SKC=



000
FTUS42 KMLB 272347 RRA
TAFVRB
TAF
KVRB 272347Z 2800/2824 26013KT P6SM VCSH FEW015 BKN035 OVC100
     FM280300 26013KT P6SM SCT035 BKN150
     FM280500 31014G22KT P6SM BKN250
     FM281800 32013G19KT P6SM SKC
     FM282100 32012KT P6SM SKC=



000
FTUS42 KMLB 272347 RRA
TAFMCO
TAF
KMCO 272347Z 2800/2824 29013KT P6SM BKN035 BKN100 OVC200
     FM280300 31014G21KT P6SM SCT100 BKN250
     FM280800 32011KT P6SM SCT250
     FM281800 30012G18KT P6SM SKC
     FM282200 30011KT P6SM FEW250=



000
FTUS42 KMLB 272347 RRA
TAFDAB
TAF
KDAB 272347Z 2800/2824 27013KT P6SM FEW015 BKN040 OVC200
     FM280200 29011G19KT P6SM SCT035 BKN250
     FM280800 32011KT P6SM SCT250
     FM281800 31012G18KT P6SM SKC
     FM282200 30011KT P6SM FEW250=



000
FTUS42 KMLB 272347 RRA
TAFMLB
TAF
KMLB 272347Z 2800/2824 27013KT P6SM VCSH BKN050 OVC200
     FM280300 26013KT P6SM SCT035 BKN150
     FM280500 31014G22KT P6SM BKN250
     FM281800 32013G19KT P6SM SKC
     FM282100 32012KT P6SM SKC=



000
FTUS42 KMLB 272347 RRA
TAFSFB
TAF
KSFB 272347Z 2800/2824 30013KT P6SM SCT035 BKN100 OVC200
     FM280300 31014G21KT P6SM SCT100 BKN250
     FM280700 32011KT P6SM SCT250
     FM281800 31012G18KT P6SM SKC
     FM282200 30011KT P6SM FEW250=



000
FTUS42 KMLB 272100 AAB
TAFMCO
TAF AMD
KMCO 272100Z 2721/2818 28015KT P6SM -SHRA SCT035 BKN050
     FM280000 28013KT P6SM VCSH BKN035
     FM280300 30011KT P6SM BKN250=



000
FTUS42 KMLB 271949 AAB
TAFVRB
TAF AMD
KVRB 271949Z 2720/2818 24011KT P6SM VCSH SCT035 BKN060
      TEMPO 2720/2721 VRB20G30KT 3SM TSRA BKN025CB
     FM280000 26013KT P6SM VCSH BKN035
     FM280400 30012KT P6SM BKN250=



000
FTUS42 KMLB 271915 AAA
TAFMCO
TAF AMD
KMCO 271915Z 2719/2818 24015KT P6SM VCTS SCT035CB BKN050
      TEMPO 2719/2721 3SM TSRA BKN025CB
     FM280000 28013KT P6SM VCSH BKN035
     FM280300 30011KT P6SM BKN250=



000
FTUS42 KMLB 271915 AAA
TAFMCO
TAF AMD
KMCO 271915Z 2719/2818 24015KT P6SM VCTS SCT035CB BKN050
      TEMPO 2719/2721 3SM TSRA BKN025CB
     FM280000 28013KT P6SM VCSH BKN035
     FM280300 30011KT P6SM BKN250=



000
FTUS42 KMLB 271819 AAA
TAFDAB
TAF AMD
KDAB 271819Z 2718/2818 24014KT P6SM VCTS SCT035CB BKN050
      TEMPO 2718/2720 VRB20G30KT 3SM TSRA BKN025CB
     FM280000 27013KT P6SM VCSH BKN035
     FM280300 29011KT P6SM BKN250=



000
FTUS42 KMLB 271816 AAA
TAFSFB
TAF AMD
KSFB 271816Z 2718/2818 25014KT P6SM VCTS SCT035CB BKN050
      TEMPO 2718/2720 VRB20G25KT 3SM TSRA BKN025CB
     FM280000 28013KT P6SM VCSH BKN035
     FM280300 30011KT P6SM BKN250=



000
FTUS42 KMLB 271816 AAA
TAFSFB
TAF AMD
KSFB 271816Z 2718/2818 25014KT P6SM VCTS SCT035CB BKN050
      TEMPO 2718/2720 VRB20G25KT 3SM TSRA BKN025CB
     FM280000 28013KT P6SM VCSH BKN035
     FM280300 30011KT P6SM BKN250=



000
FTUS42 KMLB 271737 AAA
TAFVRB
TAF AMD
KVRB 271737Z 2718/2818 24015KT P6SM VCTS SCT035CB BKN050
      TEMPO 2718/2719 VRB20G30KT 3SM TSRA BKN025CB
     FM280000 26013KT P6SM VCSH BKN035
     FM280400 30012KT P6SM BKN250=



000
FTUS42 KMLB 271737 AAA
TAFVRB
TAF AMD
KVRB 271737Z 2718/2818 24015KT P6SM VCTS SCT035CB BKN050
      TEMPO 2718/2719 VRB20G30KT 3SM TSRA BKN025CB
     FM280000 26013KT P6SM VCSH BKN035
     FM280400 30012KT P6SM BKN250=



000
FTUS42 KMLB 271720
TAFSFB
TAF
KSFB 271720Z 2718/2818 25014KT P6SM VCTS SCT035CB BKN050
     FM280000 28013KT P6SM VCSH BKN035
     FM280300 30011KT P6SM BKN250=



000
FTUS42 KMLB 271720
TAFMLB
TAF
KMLB 271720Z 2718/2818 24015KT P6SM VCTS SCT035CB BKN050
     FM280000 27013KT P6SM VCSH BKN035
     FM280400 30012KT P6SM BKN250=



000
FTUS42 KMLB 271720
TAFDAB
TAF
KDAB 271720Z 2718/2818 25014KT P6SM VCTS SCT035CB BKN050
     FM280000 27013KT P6SM VCSH BKN035
     FM280300 29011KT P6SM BKN250=



000
FTUS42 KMLB 271720
TAFMCO
TAF
KMCO 271720Z 2718/2818 25014KT P6SM VCTS SCT035CB BKN050
     FM280000 28013KT P6SM VCSH BKN035
     FM280300 30011KT P6SM BKN250=



000
FTUS42 KMLB 271720
TAFVRB
TAF
KVRB 271720Z 2718/2818 24015KT P6SM VCTS SCT035CB BKN050
     FM280000 26013KT P6SM VCSH BKN035
     FM280400 30012KT P6SM BKN250=



000
FTUS42 KMLB 271705 AAA
TAFSFB
TAF AMD
KSFB 271705Z 2717/2812 23014G22KT P6SM VCSH SCT035 BKN150
     FM271800 24014KT P6SM VCTS SCT035CB BKN080
     FM272300 29013KT P6SM BKN035=



000
FTUS42 KMLB 271705 AAA
TAFSFB
TAF AMD
KSFB 271705Z 2717/2812 23014G22KT P6SM VCSH SCT035 BKN150
     FM271800 24014KT P6SM VCTS SCT035CB BKN080
     FM272300 29013KT P6SM BKN035=



000
FTUS42 KMLB 271704 AAB
TAFMCO
TAF AMD
KMCO 271704Z 2717/2812 24014G22KT P6SM VCSH SCT035 BKN150
     FM271800 25015G25KT P6SM VCTS SCT035CB BKN080
     FM280000 28013KT P6SM BKN035=



000
FTUS42 KMLB 271704 AAB
TAFMCO
TAF AMD
KMCO 271704Z 2717/2812 24014G22KT P6SM VCSH SCT035 BKN150
     FM271800 25015G25KT P6SM VCTS SCT035CB BKN080
     FM280000 28013KT P6SM BKN035=



000
FTUS42 KMLB 271505 AAA
TAFMCO
TAF AMD
KMCO 271505Z 2715/2812 24014G22KT P6SM SCT030 BKN150
     FM271800 25015G25KT P6SM VCTS SCT035CB BKN080
     FM280000 28013KT P6SM BKN035=



000
FTUS42 KMLB 271140
TAFSFB
TAF
KSFB 271140Z 2712/2812 18007KT P6SM SCT100 BKN250
     FM271400 22013G20KT P6SM SCT020 BKN120
     FM271600 24015G22KT P6SM VCTS SCT035CB BKN080
     FM272300 29013KT P6SM BKN035=



000
FTUS42 KMLB 271140
TAFMCO
TAF
KMCO 271140Z 2712/2812 18007KT P6SM SCT100 BKN250
     FM271400 22013G20KT P6SM SCT020 BKN120
     FM271600 24015G22KT P6SM VCTS SCT035CB BKN080
     FM272300 29013KT P6SM BKN035=



000
FTUS42 KMLB 271140
TAFDAB
TAF
KDAB 271140Z 2712/2812 20007KT P6SM BKN250
     FM271400 22012G20KT P6SM SCT020 BKN120
     FM271600 24014G22KT P6SM VCTS SCT035CB BKN080
     FM272300 29013KT P6SM VCSH BKN035=



000
FTUS42 KMLB 271140
TAFMLB
TAF
KMLB 271140Z 2712/2812 18009KT P6SM BKN250
     FM271400 22014G24KT P6SM SCT020 BKN120
     FM271700 24015G22KT P6SM VCTS SCT035CB BKN080
     FM280000 29013KT P6SM VCSH BKN035=



000
FTUS42 KMLB 271140
TAFVRB
TAF
KVRB 271140Z 2712/2812 20008KT P6SM SCT040 BKN120
      TEMPO 2712/2713 5SM BR
     FM271400 22014G24KT P6SM SCT020 BKN120
     FM271700 24015G22KT P6SM VCTS SCT035CB BKN080
     FM280000 29013KT P6SM VCSH BKN035=



000
FTUS42 KMLB 271140
TAFDAB
TAF
KDAB 271140Z 2712/2812 20007KT P6SM BKN250
     FM271400 22012G20KT P6SM SCT020 BKN120
     FM271600 24014G22KT P6SM VCTS SCT035CB BKN080
     FM272300 29013KT P6SM VCSH BKN035=



000
FTUS42 KMLB 271140
TAFMCO
TAF
KMCO 271140Z 2712/2812 18007KT P6SM SCT100 BKN250
     FM271400 22013G20KT P6SM SCT020 BKN120
     FM271600 24015G22KT P6SM VCTS SCT035CB BKN080
     FM272300 29013KT P6SM BKN035=



000
FTUS42 KMLB 271140
TAFMLB
TAF
KMLB 271140Z 2712/2812 18009KT P6SM BKN250
     FM271400 22014G24KT P6SM SCT020 BKN120
     FM271700 24015G22KT P6SM VCTS SCT035CB BKN080
     FM280000 29013KT P6SM VCSH BKN035=



000
FTUS42 KMLB 271140
TAFVRB
TAF
KVRB 271140Z 2712/2812 20008KT P6SM SCT040 BKN120
      TEMPO 2712/2713 5SM BR
     FM271400 22014G24KT P6SM SCT020 BKN120
     FM271700 24015G22KT P6SM VCTS SCT035CB BKN080
     FM280000 29013KT P6SM VCSH BKN035=



000
FTUS42 KMLB 271140
TAFSFB
TAF
KSFB 271140Z 2712/2812 18007KT P6SM SCT100 BKN250
     FM271400 22013G20KT P6SM SCT020 BKN120
     FM271600 24015G22KT P6SM VCTS SCT035CB BKN080
     FM272300 29013KT P6SM BKN035=



000
FTUS42 KMLB 271043 AAD
TAFMLB
TAF AMD
KMLB 271043Z 2711/2806 21004KT P6SM FEW080 BKN100
     FM271300 21011KT P6SM VCSH SCT025 OVC060
     FM271500 22014G24KT 5SM SHRA VCTS BKN020CB OVC050
     FM271800 24017KT P6SM VCSH BKN020 OVC050
     FM280200 29014KT P6SM SCT035=



000
FTUS42 KMLB 271018 AAC
TAFVRB
TAF AMD
KVRB 271018Z 2710/2806 22005KT P6SM VCSH SCT005 BKN110
      TEMPO 2711/2712 -TSRA BKN005CB OVC050
     FM271300 21011KT P6SM VCSH SCT025 OVC060
     FM271600 22014G24KT 5SM SHRA VCTS BKN020CB OVC050
     FM271900 24017KT P6SM VCSH BKN020 OVC050
     FM280300 29013KT P6SM SCT035=



000
FTUS42 KMLB 271018 AAC
TAFVRB
TAF AMD
KVRB 271018Z 2710/2806 22005KT P6SM VCSH SCT005 BKN110
      TEMPO 2711/2712 -TSRA BKN005CB OVC050
     FM271300 21011KT P6SM VCSH SCT025 OVC060
     FM271600 22014G24KT 5SM SHRA VCTS BKN020CB OVC050
     FM271900 24017KT P6SM VCSH BKN020 OVC050
     FM280300 29013KT P6SM SCT035=



000
FTUS42 KMLB 270921 AAB
TAFVRB
TAF AMD
KVRB 270921Z 2709/2806 23009KT P6SM VCSH SCT005 BKN110
      TEMPO 2709/2710 -SHRA BKN005 BKN035
     FM271300 21011KT P6SM VCSH SCT025 OVC060
     FM271600 22014G24KT 5SM SHRA VCTS BKN020CB OVC050
     FM271900 24017KT P6SM VCSH BKN020 OVC050
     FM280300 29013KT P6SM SCT035=



000
FTUS42 KMLB 270921 AAB
TAFVRB
TAF AMD
KVRB 270921Z 2709/2806 23009KT P6SM VCSH SCT005 BKN110
      TEMPO 2709/2710 -SHRA BKN005 BKN035
     FM271300 21011KT P6SM VCSH SCT025 OVC060
     FM271600 22014G24KT 5SM SHRA VCTS BKN020CB OVC050
     FM271900 24017KT P6SM VCSH BKN020 OVC050
     FM280300 29013KT P6SM SCT035=



000
FTUS42 KMLB 270920 AAA
TAFMCO
TAF AMD
KMCO 270920Z 2709/2806 20007KT P6SM SCT070 BKN100
     FM271300 22014G20KT P6SM VCSH SCT025 OVC060
     FM271600 23015G25KT 5SM SHRA VCTS BKN020CB OVC050
     FM271900 25013KT P6SM VCSH BKN020 OVC050
     FM280300 29013KT P6SM SCT035=



000
FTUS42 KMLB 270542 AAA
TAFVRB
TAF AMD
KVRB 270542Z 2706/2806 22004KT P6SM OVC150
     FM270900 20008KT P6SM VCSH SCT035 OVC100
      TEMPO 2709/2713 -SHRA SCT020 BKN035
     FM271300 21011KT P6SM VCSH SCT025 OVC060
     FM271600 22014G24KT 5SM SHRA VCTS BKN020CB OVC050
     FM271900 24017KT P6SM VCSH BKN020 OVC050
     FM280300 29013KT P6SM SCT035=



000
FTUS42 KMLB 270542 AAA
TAFVRB
TAF AMD
KVRB 270542Z 2706/2806 22004KT P6SM OVC150
     FM270900 20008KT P6SM VCSH SCT035 OVC100
      TEMPO 2709/2713 -SHRA SCT020 BKN035
     FM271300 21011KT P6SM VCSH SCT025 OVC060
     FM271600 22014G24KT 5SM SHRA VCTS BKN020CB OVC050
     FM271900 24017KT P6SM VCSH BKN020 OVC050
     FM280300 29013KT P6SM SCT035=



000
FTUS42 KMLB 270540
TAFVRB
TAF
KVRB 270540Z 2706/2806 22004KT P6SM -RA VCSH SKC
      TEMPO 2709/2713 -SHRA SCT020 BKN035
     FM271300 21011KT P6SM VCSH SCT025 OVC060
     FM271600 22014G24KT 5SM SHRA VCTS BKN020CB OVC050
     FM271900 24017KT P6SM VCSH BKN020 OVC050
     FM280300 29013KT P6SM SCT035=



000
FTUS42 KMLB 270540
TAFMCO
TAF
KMCO 270540Z 2706/2806 17005KT P6SM VCSH BKN130
      TEMPO 2707/2711 -SHRA SCT020 BKN035
     FM271300 22014G20KT P6SM VCSH SCT025 OVC060
     FM271600 23015G25KT 5SM SHRA VCTS BKN020CB OVC050
     FM271900 25013KT P6SM VCSH BKN020 OVC050
     FM280300 29013KT P6SM SCT035=



000
FTUS42 KMLB 270540
TAFMCO
TAF
KMCO 270540Z 2706/2806 17005KT P6SM VCSH BKN130
      TEMPO 2707/2711 -SHRA SCT020 BKN035
     FM271300 22014G20KT P6SM VCSH SCT025 OVC060
     FM271600 23015G25KT 5SM SHRA VCTS BKN020CB OVC050
     FM271900 25013KT P6SM VCSH BKN020 OVC050
     FM280300 29013KT P6SM SCT035=



000
FTUS42 KMLB 270540
TAFMLB
TAF
KMLB 270540Z 2706/2806 25008KT P6SM VCSH FEW008 BKN017
      TEMPO 2709/2713 -SHRA SCT020 BKN035
     FM271300 21011KT P6SM VCSH SCT025 OVC060
     FM271500 22014G24KT 5SM SHRA VCTS BKN020CB OVC050
     FM271800 24017KT P6SM VCSH BKN020 OVC050
     FM280200 29014KT P6SM SCT035=



000
FTUS42 KMLB 270540
TAFDAB
TAF
KDAB 270540Z 2706/2806 21005KT P6SM VCSH OVC110
      TEMPO 2707/2711 -SHRA SCT020 BKN035
     FM271200 21014G20KT P6SM VCSH SCT025 OVC060
     FM271500 23015G25KT 5SM SHRA VCTS BKN020CB OVC050
     FM271800 25014KT P6SM VCSH BKN020 OVC050
     FM280200 28013KT P6SM SCT035=



000
FTUS42 KMLB 270540
TAFSFB
TAF
KSFB 270540Z 2706/2806 19006KT P6SM VCSH FEW110
      TEMPO 2707/2711 -SHRA SCT020 BKN035
     FM271300 21014G20KT P6SM VCSH SCT025 OVC060
     FM271600 23015G25KT 5SM SHRA VCTS BKN020CB OVC050
     FM271900 25013KT P6SM VCSH BKN020 OVC050
     FM280300 29013KT P6SM SCT035=



000
FTUS42 KMLB 270540
TAFDAB
TAF
KDAB 270540Z 2706/2806 21005KT P6SM VCSH OVC110
      TEMPO 2707/2711 -SHRA SCT020 BKN035
     FM271200 21014G20KT P6SM VCSH SCT025 OVC060
     FM271500 23015G25KT 5SM SHRA VCTS BKN020CB OVC050
     FM271800 25014KT P6SM VCSH BKN020 OVC050
     FM280200 28013KT P6SM SCT035=



000
FTUS42 KMLB 270540
TAFSFB
TAF
KSFB 270540Z 2706/2806 19006KT P6SM VCSH FEW110
      TEMPO 2707/2711 -SHRA SCT020 BKN035
     FM271300 21014G20KT P6SM VCSH SCT025 OVC060
     FM271600 23015G25KT 5SM SHRA VCTS BKN020CB OVC050
     FM271900 25013KT P6SM VCSH BKN020 OVC050
     FM280300 29013KT P6SM SCT035=



000
FTUS42 KMLB 270540
TAFVRB
TAF
KVRB 270540Z 2706/2806 22004KT P6SM -RA VCSH SKC
      TEMPO 2709/2713 -SHRA SCT020 BKN035
     FM271300 21011KT P6SM VCSH SCT025 OVC060
     FM271600 22014G24KT 5SM SHRA VCTS BKN020CB OVC050
     FM271900 24017KT P6SM VCSH BKN020 OVC050
     FM280300 29013KT P6SM SCT035=



000
FTUS42 KMLB 270540
TAFMLB
TAF
KMLB 270540Z 2706/2806 25008KT P6SM VCSH FEW008 BKN017
      TEMPO 2709/2713 -SHRA SCT020 BKN035
     FM271300 21011KT P6SM VCSH SCT025 OVC060
     FM271500 22014G24KT 5SM SHRA VCTS BKN020CB OVC050
     FM271800 24017KT P6SM VCSH BKN020 OVC050
     FM280200 29014KT P6SM SCT035=



000
FTUS42 KMLB 270305 AAA
TAFMCO
TAF AMD
KMCO 270305Z 2703/2724 27006KT P6SM VCSH SCT030 BKN070 OVC140
      TEMPO 2703/2705 4SM SHRA BKN030 OVC070
     FM270500 23006KT P6SM VCSH SCT030 BKN070
      TEMPO 2707/2711 -SHRA SCT020 BKN035
     FM271300 22014G20KT P6SM VCSH SCT025 OVC060=



000
FTUS42 KMLB 262350 RRA
TAFSFB
TAF
KSFB 262350Z 2700/2724 20005KT P6SM SCT040 BKN080
     FM270200 22007KT P6SM VCSH SCT030 OVC090
      TEMPO 2702/2705 4SM SHRA BR BKN030 OVC070
     FM270500 23006KT P6SM VCSH SCT030 BKN070
      TEMPO 2707/2711 -SHRA SCT020 BKN035
     FM271300 22014G20KT P6SM VCSH SCT025 OVC060=



000
FTUS42 KMLB 262350 RRA
TAFMLB
TAF
KMLB 262350Z 2700/2724 19004KT P6SM VCSH SCT040 OVC080
     FM270600 22006KT P6SM VCSH SCT030 BKN070
      TEMPO 2708/2712 -SHRA SCT020 BKN035
     FM271300 22014G20KT P6SM VCSH SCT025 OVC060
      TEMPO 2718/2721 P6SM TS BKN050CB
     FM272100 25020G28KT P6SM -SHRA OVC050=



000
FTUS42 KMLB 262350 RRA
TAFMCO
TAF
KMCO 262350Z 2700/2724 22006KT P6SM SCT040 BKN100
     FM270200 22007KT P6SM VCSH SCT030 OVC090
      TEMPO 2702/2705 4SM SHRA BR BKN030 OVC070
     FM270500 23006KT P6SM VCSH SCT030 BKN070
      TEMPO 2707/2711 -SHRA SCT020 BKN035
     FM271300 22014G20KT P6SM VCSH SCT025 OVC060=



000
FTUS42 KMLB 262350 RRA
TAFDAB
TAF
KDAB 262350Z 2700/2724 21004KT P6SM SCT040 BKN080
     FM270200 22007KT P6SM VCSH SCT030 OVC090
      TEMPO 2702/2705 4SM SHRA BR BKN030 OVC070
     FM270500 23006KT P6SM VCSH SCT030 BKN070
      TEMPO 2707/2711 -SHRA SCT020 BKN035
     FM271300 22014G20KT P6SM VCSH SCT025 OVC060=



000
FTUS42 KMLB 262350 RRA
TAFVRB
TAF
KVRB 262350Z 2700/2724 20004KT P6SM SCT040 OVC080
     FM270600 22006KT P6SM VCSH SCT030 BKN070
      TEMPO 2708/2712 -SHRA SCT020 BKN035
     FM271300 22014G20KT P6SM VCSH SCT025 OVC060
      TEMPO 2718/2721 P6SM TS BKN050CB
     FM272100 25020G28KT P6SM -SHRA OVC050=



000
FTUS42 KMLB 262350 RRA
TAFVRB
TAF
KVRB 262350Z 2700/2724 20004KT P6SM SCT040 OVC080
     FM270600 22006KT P6SM VCSH SCT030 BKN070
      TEMPO 2708/2712 -SHRA SCT020 BKN035
     FM271300 22014G20KT P6SM VCSH SCT025 OVC060
      TEMPO 2718/2721 P6SM TS BKN050CB
     FM272100 25020G28KT P6SM -SHRA OVC050=



000
FTUS42 KMLB 262350 RRA
TAFDAB
TAF
KDAB 262350Z 2700/2724 21004KT P6SM SCT040 BKN080
     FM270200 22007KT P6SM VCSH SCT030 OVC090
      TEMPO 2702/2705 4SM SHRA BR BKN030 OVC070
     FM270500 23006KT P6SM VCSH SCT030 BKN070
      TEMPO 2707/2711 -SHRA SCT020 BKN035
     FM271300 22014G20KT P6SM VCSH SCT025 OVC060=



000
FTUS42 KMLB 262350 RRA
TAFMCO
TAF
KMCO 262350Z 2700/2724 22006KT P6SM SCT040 BKN100
     FM270200 22007KT P6SM VCSH SCT030 OVC090
      TEMPO 2702/2705 4SM SHRA BR BKN030 OVC070
     FM270500 23006KT P6SM VCSH SCT030 BKN070
      TEMPO 2707/2711 -SHRA SCT020 BKN035
     FM271300 22014G20KT P6SM VCSH SCT025 OVC060=



000
FTUS42 KMLB 262350 RRA
TAFMLB
TAF
KMLB 262350Z 2700/2724 19004KT P6SM VCSH SCT040 OVC080
     FM270600 22006KT P6SM VCSH SCT030 BKN070
      TEMPO 2708/2712 -SHRA SCT020 BKN035
     FM271300 22014G20KT P6SM VCSH SCT025 OVC060
      TEMPO 2718/2721 P6SM TS BKN050CB
     FM272100 25020G28KT P6SM -SHRA OVC050=



000
FTUS42 KMLB 262350 RRA
TAFSFB
TAF
KSFB 262350Z 2700/2724 20005KT P6SM SCT040 BKN080
     FM270200 22007KT P6SM VCSH SCT030 OVC090
      TEMPO 2702/2705 4SM SHRA BR BKN030 OVC070
     FM270500 23006KT P6SM VCSH SCT030 BKN070
      TEMPO 2707/2711 -SHRA SCT020 BKN035
     FM271300 22014G20KT P6SM VCSH SCT025 OVC060=



000
FTUS42 KMLB 262040 AAB
TAFMLB
TAF AMD
KMLB 262040Z 2621/2718 19011KT P6SM VCTS SCT035CB BKN060 BKN250
      TEMPO 2621/2623 22022KT 3SM TSRA BKN030CB BKN060
     FM270000 19004KT P6SM VCSH SCT040 OVC080
     FM270500 22008KT P6SM SCT030 OVC100
     FM271400 22014G20KT P6SM VCSH SCT025 BKN060=



000
FTUS42 KMLB 262040 AAB
TAFMLB
TAF AMD
KMLB 262040Z 2621/2718 19011KT P6SM VCTS SCT035CB BKN060 BKN250
      TEMPO 2621/2623 22022KT 3SM TSRA BKN030CB BKN060
     FM270000 19004KT P6SM VCSH SCT040 OVC080
     FM270500 22008KT P6SM SCT030 OVC100
     FM271400 22014G20KT P6SM VCSH SCT025 BKN060=



000
FTUS42 KMLB 261915 AAA
TAFVRB
TAF AMD
KVRB 261915Z 2619/2718 14011KT P6SM VCSH SCT035 BKN080
      TEMPO 2620/2622 3SM TSRA BKN035CB
     FM270000 20004KT P6SM VCSH SCT040 OVC080
     FM270500 23007KT P6SM SCT030 OVC100
     FM271400 22014G20KT P6SM VCSH SCT025 BKN060=



000
FTUS42 KMLB 261859 AAA
TAFSFB
TAF AMD
KSFB 261859Z 2619/2718 23010KT P6SM VCTS SCT035CB BKN060 BKN250
     FM270000 20005KT P6SM VCSH SCT040 OVC080
     FM270400 21008KT P6SM SCT030 OVC100
     FM271400 22014G20KT P6SM VCSH SCT025 OVC060=



000
FTUS42 KMLB 261859 AAA
TAFSFB
TAF AMD
KSFB 261859Z 2619/2718 23010KT P6SM VCTS SCT035CB BKN060 BKN250
     FM270000 20005KT P6SM VCSH SCT040 OVC080
     FM270400 21008KT P6SM SCT030 OVC100
     FM271400 22014G20KT P6SM VCSH SCT025 OVC060=



000
FTUS42 KMLB 261723
TAFMCO
TAF
KMCO 261723Z 2618/2718 19011KT P6SM VCSH SCT030 BKN080
     FM262000 21009KT P6SM VCTS SCT035CB BKN060 BKN250
     FM270000 22005KT P6SM VCSH SCT040 OVC100
     FM270400 20008KT P6SM SCT030 OVC100
     FM271400 22014G20KT P6SM VCSH SCT025 OVC060=



000
FTUS42 KMLB 261723
TAFSFB
TAF
KSFB 261723Z 2618/2718 20009KT P6SM VCSH SCT035 BKN080
     FM262000 21010KT P6SM VCTS SCT035CB BKN060 BKN250
     FM270000 20005KT P6SM VCSH SCT040 OVC080
     FM270400 21008KT P6SM SCT030 OVC100
     FM271400 22014G20KT P6SM VCSH SCT025 OVC060=



000
FTUS42 KMLB 261723
TAFVRB
TAF
KVRB 261723Z 2618/2718 18011G17KT P6SM SCT035
     FM262100 19011KT P6SM VCTS SCT035CB BKN060 BKN250
     FM270000 20004KT P6SM VCSH SCT040 OVC080
     FM270500 23007KT P6SM SCT030 OVC100
     FM271400 22014G20KT P6SM VCSH SCT025 BKN060=



000
FTUS42 KMLB 261723
TAFDAB
TAF
KDAB 261723Z 2618/2718 19010KT P6SM VCTS SCT035CB OVC080
      TEMPO 2618/2619 3SM SHRA BKN035
     FM262100 21009KT P6SM VCTS SCT035CB BKN060 BKN250
     FM270000 21004KT P6SM VCSH SCT040 OVC080
     FM270400 21007KT P6SM SCT030 OVC100
     FM271400 23014G20KT P6SM VCSH SCT025 OVC060=



000
FTUS42 KMLB 261723
TAFMLB
TAF
KMLB 261723Z 2618/2718 20011G17KT P6SM SCT035 BKN080
     FM262100 19011KT P6SM VCTS SCT035CB BKN060 BKN250
     FM270000 19004KT P6SM VCSH SCT040 OVC080
     FM270500 22008KT P6SM SCT030 OVC100
     FM271400 22014G20KT P6SM VCSH SCT025 BKN060=



000
FTUS42 KMLB 261723
TAFMCO
TAF
KMCO 261723Z 2618/2718 19011KT P6SM VCSH SCT030 BKN080
     FM262000 21009KT P6SM VCTS SCT035CB BKN060 BKN250
     FM270000 22005KT P6SM VCSH SCT040 OVC100
     FM270400 20008KT P6SM SCT030 OVC100
     FM271400 22014G20KT P6SM VCSH SCT025 OVC060=



000
FTUS42 KMLB 261723
TAFSFB
TAF
KSFB 261723Z 2618/2718 20009KT P6SM VCSH SCT035 BKN080
     FM262000 21010KT P6SM VCTS SCT035CB BKN060 BKN250
     FM270000 20005KT P6SM VCSH SCT040 OVC080
     FM270400 21008KT P6SM SCT030 OVC100
     FM271400 22014G20KT P6SM VCSH SCT025 OVC060=



000
FTUS42 KMLB 261723
TAFVRB
TAF
KVRB 261723Z 2618/2718 18011G17KT P6SM SCT035
     FM262100 19011KT P6SM VCTS SCT035CB BKN060 BKN250
     FM270000 20004KT P6SM VCSH SCT040 OVC080
     FM270500 23007KT P6SM SCT030 OVC100
     FM271400 22014G20KT P6SM VCSH SCT025 BKN060=



000
FTUS42 KMLB 261723
TAFMLB
TAF
KMLB 261723Z 2618/2718 20011G17KT P6SM SCT035 BKN080
     FM262100 19011KT P6SM VCTS SCT035CB BKN060 BKN250
     FM270000 19004KT P6SM VCSH SCT040 OVC080
     FM270500 22008KT P6SM SCT030 OVC100
     FM271400 22014G20KT P6SM VCSH SCT025 BKN060=



000
FTUS42 KMLB 261723
TAFDAB
TAF
KDAB 261723Z 2618/2718 19010KT P6SM VCTS SCT035CB OVC080
      TEMPO 2618/2619 3SM SHRA BKN035
     FM262100 21009KT P6SM VCTS SCT035CB BKN060 BKN250
     FM270000 21004KT P6SM VCSH SCT040 OVC080
     FM270400 21007KT P6SM SCT030 OVC100
     FM271400 23014G20KT P6SM VCSH SCT025 OVC060=



000
FTUS42 KMLB 261645 AAA
TAFDAB
TAF AMD
KDAB 261645Z 2617/2712 19008KT P6SM VCSH SCT030 BKN080
     FM261800 21010KT P6SM VCTS SCT030CB BKN060 BKN250
     FM270000 21004KT P6SM VCSH SCT040 OVC080
     FM270400 21007KT P6SM SCT030 OVC100=



000
FTUS42 KMLB 261542 AAA
TAFSFB
TAF AMD
KSFB 261542Z 2616/2712 18010KT P6SM VCSH FEW030 BKN080
     FM261800 21010KT P6SM VCTS SCT030CB BKN060 BKN250
     FM270000 20005KT P6SM VCSH SCT040 OVC080
     FM270400 21008KT P6SM SCT030 OVC100=



000
FTUS42 KMLB 261506 AAA
TAFMCO
TAF AMD
KMCO 261506Z 2615/2712 18009KT P6SM VCSH FEW030 BKN080
     FM261800 20010KT P6SM VCTS SCT035CB BKN060 BKN250
     FM270000 22005KT P6SM VCSH SCT040 OVC100
     FM270400 20008KT P6SM SCT030 OVC100=



000
FTUS42 KMLB 261132
TAFVRB
TAF
KVRB 261132Z 2612/2712 00000KT P6SM SCT050 BKN250
     FM261500 18010KT P6SM SCT030 BKN050
     FM261900 17011KT P6SM VCTS SCT030CB BKN060 BKN250
     FM270200 20004KT P6SM VCSH SCT040 OVC080
     FM270500 23007KT P6SM SCT030 OVC100=



000
FTUS42 KMLB 261132
TAFDAB
TAF
KDAB 261132Z 2612/2712 00000KT P6SM SCT060 BKN250
      TEMPO 2612/2613 5SM BR
     FM261500 19008KT P6SM SCT025 BKN080
     FM261800 21010KT P6SM VCTS SCT030CB BKN060 BKN250
     FM270000 21004KT P6SM VCSH SCT040 OVC080
     FM270400 21007KT P6SM SCT030 OVC100=



000
FTUS42 KMLB 261132
TAFMCO
TAF
KMCO 261132Z 2612/2712 00000KT P6SM SCT100 BKN250
     FM261400 16006KT P6SM FEW030 BKN080
     FM261800 20010KT P6SM VCTS SCT030CB BKN060 BKN250
     FM270000 20005KT P6SM VCSH SCT040 OVC100
     FM270400 20008KT P6SM SCT030 OVC100=



000
FTUS42 KMLB 261132
TAFSFB
TAF
KSFB 261132Z 2612/2712 00000KT P6SM SCT100 BKN250
     FM261400 17007KT P6SM SCT030 BKN080
     FM261800 21010KT P6SM VCTS SCT030CB BKN060 BKN250
     FM270000 20005KT P6SM VCSH SCT040 OVC080
     FM270400 21008KT P6SM SCT030 OVC100=



000
FTUS42 KMLB 261132
TAFMLB
TAF
KMLB 261132Z 2612/2712 16005KT P6SM SCT060 BKN250
     FM261500 18008KT P6SM SCT030 BKN050
     FM261900 18012KT P6SM VCTS SCT030CB BKN060 BKN250
     FM270200 19004KT P6SM VCSH SCT040 OVC080
     FM270500 22008KT P6SM SCT030 OVC100=



000
FTUS42 KMLB 261132
TAFVRB
TAF
KVRB 261132Z 2612/2712 00000KT P6SM SCT050 BKN250
     FM261500 18010KT P6SM SCT030 BKN050
     FM261900 17011KT P6SM VCTS SCT030CB BKN060 BKN250
     FM270200 20004KT P6SM VCSH SCT040 OVC080
     FM270500 23007KT P6SM SCT030 OVC100=



000
FTUS42 KMLB 261132
TAFMLB
TAF
KMLB 261132Z 2612/2712 16005KT P6SM SCT060 BKN250
     FM261500 18008KT P6SM SCT030 BKN050
     FM261900 18012KT P6SM VCTS SCT030CB BKN060 BKN250
     FM270200 19004KT P6SM VCSH SCT040 OVC080
     FM270500 22008KT P6SM SCT030 OVC100=



000
FTUS42 KMLB 261132
TAFMCO
TAF
KMCO 261132Z 2612/2712 00000KT P6SM SCT100 BKN250
     FM261400 16006KT P6SM FEW030 BKN080
     FM261800 20010KT P6SM VCTS SCT030CB BKN060 BKN250
     FM270000 20005KT P6SM VCSH SCT040 OVC100
     FM270400 20008KT P6SM SCT030 OVC100=



000
FTUS42 KMLB 261132
TAFSFB
TAF
KSFB 261132Z 2612/2712 00000KT P6SM SCT100 BKN250
     FM261400 17007KT P6SM SCT030 BKN080
     FM261800 21010KT P6SM VCTS SCT030CB BKN060 BKN250
     FM270000 20005KT P6SM VCSH SCT040 OVC080
     FM270400 21008KT P6SM SCT030 OVC100=



000
FTUS42 KMLB 261132
TAFDAB
TAF
KDAB 261132Z 2612/2712 00000KT P6SM SCT060 BKN250
      TEMPO 2612/2613 5SM BR
     FM261500 19008KT P6SM SCT025 BKN080
     FM261800 21010KT P6SM VCTS SCT030CB BKN060 BKN250
     FM270000 21004KT P6SM VCSH SCT040 OVC080
     FM270400 21007KT P6SM SCT030 OVC100=



000
FTUS42 KMLB 260904 AAB
TAFVRB
TAF AMD
KVRB 260904Z 2609/2706 00000KT P6SM SCT050
      TEMPO 2609/2612 3SM BR
     FM261500 17010KT P6SM SCT025 BKN050
     FM261900 16011KT P6SM VCTS SCT030CB BKN060 BKN250
     FM262300 17005KT P6SM VCSH SCT040 OVC080=



000
FTUS42 KMLB 260902 AAB
TAFDAB
TAF AMD
KDAB 260902Z 2609/2706 00000KT 3SM BR BKN004
      TEMPO 2609/2612 1SM BR OVC002
     FM261500 19008KT P6SM SCT025 BKN050
     FM261900 21010KT P6SM VCTS SCT030CB BKN060 BKN250
     FM262300 20004KT P6SM VCSH SCT040 OVC080=



000
FTUS42 KMLB 260901 AAB
TAFSFB
TAF AMD
KSFB 260901Z 2609/2706 00000KT 3SM BR BKN004
      TEMPO 2609/2612 1/2SM FG OVC002
     FM261400 18007KT P6SM SCT030 BKN060
     FM261800 21010KT P6SM VCTS SCT030CB BKN060 BKN250
     FM262300 21005KT P6SM VCSH SCT040 OVC080=



000
FTUS42 KMLB 260900 AAA
TAFMCO
TAF AMD
KMCO 260900Z 2609/2706 00000KT P6SM SCT250
      TEMPO 2610/2613 5SM BR
     FM261300 16006KT P6SM FEW030 SCT060 BKN250
     FM261800 20010KT P6SM VCTS SCT030CB BKN060 BKN250
     FM270000 20005KT P6SM VCSH SCT040 OVC080=



000
FTUS42 KMLB 260900 AAA
TAFMCO
TAF AMD
KMCO 260900Z 2609/2706 00000KT P6SM SCT250
      TEMPO 2610/2613 5SM BR
     FM261300 16006KT P6SM FEW030 SCT060 BKN250
     FM261800 20010KT P6SM VCTS SCT030CB BKN060 BKN250
     FM270000 20005KT P6SM VCSH SCT040 OVC080=



000
FTUS42 KMLB 260814 AAA
TAFVRB
TAF AMD
KVRB 260814Z 2608/2706 00000KT 5SM BR FEW050 SCT250
      TEMPO 2608/2611 2SM BR
     FM261500 17010KT P6SM SCT025 BKN050
     FM261900 16011KT P6SM VCTS SCT030CB BKN060 BKN250
     FM262300 17005KT P6SM VCSH SCT040 OVC080=



000
FTUS42 KMLB 260813 AAA
TAFDAB
TAF AMD
KDAB 260813Z 2608/2706 00000KT 5SM BR SCT004
      TEMPO 2608/2611 2SM BR OVC002
     FM261500 19008KT P6SM SCT025 BKN050
     FM261900 21010KT P6SM VCTS SCT030CB BKN060 BKN250
     FM262300 20004KT P6SM VCSH SCT040 OVC080=



000
FTUS42 KMLB 260813 AAA
TAFDAB
TAF AMD
KDAB 260813Z 2608/2706 00000KT 5SM BR SCT004
      TEMPO 2608/2611 2SM BR OVC002
     FM261500 19008KT P6SM SCT025 BKN050
     FM261900 21010KT P6SM VCTS SCT030CB BKN060 BKN250
     FM262300 20004KT P6SM VCSH SCT040 OVC080=



000
FTUS42 KMLB 260612 AAA
TAFSFB
TAF AMD
KSFB 260612Z 2606/2706 00000KT 3SM BR SCT250
      TEMPO 2606/2609 1SM BR
     FM261500 18007KT P6SM SCT030 BKN060
     FM261800 21010KT P6SM VCTS SCT030CB BKN060 BKN250
     FM262300 21005KT P6SM VCSH SCT040 OVC080=



000
FTUS42 KMLB 260612 AAA
TAFSFB
TAF AMD
KSFB 260612Z 2606/2706 00000KT 3SM BR SCT250
      TEMPO 2606/2609 1SM BR
     FM261500 18007KT P6SM SCT030 BKN060
     FM261800 21010KT P6SM VCTS SCT030CB BKN060 BKN250
     FM262300 21005KT P6SM VCSH SCT040 OVC080=



000
FTUS42 KMLB 260536
TAFDAB
TAF
KDAB 260536Z 2606/2706 00000KT P6SM FEW050 SCT250
     FM260800 14003KT 5SM BR FEW004
      TEMPO 2610/2613 2SM BR
     FM261500 19008KT P6SM SCT025 BKN050
     FM261900 21010KT P6SM VCTS SCT030CB BKN060 BKN250
     FM262300 20004KT P6SM VCSH SCT040 OVC080=



000
FTUS42 KMLB 260536
TAFVRB
TAF
KVRB 260536Z 2606/2706 15003KT P6SM SCT250
     FM261500 17010KT P6SM SCT025 BKN050
     FM261900 16011KT P6SM VCTS SCT030CB BKN060 BKN250
     FM262300 17005KT P6SM VCSH SCT040 OVC080=



000
FTUS42 KMLB 260536
TAFMCO
TAF
KMCO 260536Z 2606/2706 13003KT P6SM SCT250
     FM260800 14003KT 5SM BR FEW004
      TEMPO 2610/2613 2SM BR
     FM261500 17008KT P6SM SCT030 BKN060
     FM261800 21010KT P6SM VCTS SCT030CB BKN060 BKN250
     FM262300 20005KT P6SM VCSH SCT040 OVC080=



000
FTUS42 KMLB 260536
TAFMLB
TAF
KMLB 260536Z 2606/2706 14003KT P6SM SCT250
     FM261500 17008KT P6SM SCT025 BKN050
     FM261900 18012KT P6SM VCTS SCT030CB BKN060 BKN250
     FM262300 19004KT P6SM VCSH SCT040 OVC080=



000
FTUS42 KMLB 260536
TAFSFB
TAF
KSFB 260536Z 2606/2706 VRB03KT P6SM SCT250
     FM260800 00000KT 5SM BR FEW004
      TEMPO 2610/2613 2SM BR
     FM261500 18007KT P6SM SCT030 BKN060
     FM261800 21010KT P6SM VCTS SCT030CB BKN060 BKN250
     FM262300 21005KT P6SM VCSH SCT040 OVC080=



000
FTUS42 KMLB 260256 AAA
TAFMCO
TAF AMD
KMCO 260256Z 2603/2624 10005KT P6SM SCT250
     FM260700 14003KT 3SM BR OVC002
      TEMPO 2610/2613 1SM BR
     FM261500 19008KT P6SM SCT025 BKN050
     FM262000 21011KT P6SM VCTS SCT040CB BKN060 BKN250=



000
FTUS42 KMLB 260256 AAA
TAFMCO
TAF AMD
KMCO 260256Z 2603/2624 10005KT P6SM SCT250
     FM260700 14003KT 3SM BR OVC002
      TEMPO 2610/2613 1SM BR
     FM261500 19008KT P6SM SCT025 BKN050
     FM262000 21011KT P6SM VCTS SCT040CB BKN060 BKN250=



000
FTUS42 KMLB 252320
TAFSFB
TAF
KSFB 252320Z 2600/2624 11010KT P6SM SCT060 BKN250
     FM260300 12005KT P6SM FEW060 SCT250
     FM260700 14003KT 2SM BR OVC002
     FM261500 20009KT P6SM SCT025 BKN050
     FM262000 22008KT P6SM VCTS SCT040CB BKN060 BKN250=



000
FTUS42 KMLB 252320
TAFMLB
TAF
KMLB 252320Z 2600/2624 06009KT P6SM BKN250
     FM260300 08006KT P6SM SCT250
     FM260800 17005KT P6SM SCT015
      TEMPO 2610/2612 5SM BR BKN015
     FM261400 19008KT P6SM SCT025
     FM262100 15010KT P6SM VCTS SCT040CB BKN060 BKN250=



000
FTUS42 KMLB 252320
TAFMCO
TAF
KMCO 252320Z 2600/2624 11008KT P6SM SCT060 BKN250
     FM260300 12005KT P6SM FEW060 SCT250
     FM260700 14003KT 3SM BR OVC002
      TEMPO 2610/2613 1SM BR
     FM261500 19008KT P6SM SCT025 BKN050
     FM262000 21011KT P6SM VCTS SCT040CB BKN060 BKN250=



000
FTUS42 KMLB 252320
TAFMCO
TAF
KMCO 252320Z 2600/2624 11008KT P6SM SCT060 BKN250
     FM260300 12005KT P6SM FEW060 SCT250
     FM260700 14003KT 3SM BR OVC002
      TEMPO 2610/2613 1SM BR
     FM261500 19008KT P6SM SCT025 BKN050
     FM262000 21011KT P6SM VCTS SCT040CB BKN060 BKN250=



000
FTUS42 KMLB 252320
TAFDAB
TAF
KDAB 252320Z 2600/2624 09008KT P6SM FEW009 SCT080 BKN250
     FM260200 06002KT P6SM SCT008 BKN250
     FM260700 VRB02KT 2SM BR OVC002
     FM261400 20007KT P6SM FEW015 SCT025 BKN050
     FM261900 19006KT P6SM VCTS SCT040CB BKN060 BKN250=



000
FTUS42 KMLB 252320
TAFSFB
TAF
KSFB 252320Z 2600/2624 11010KT P6SM SCT060 BKN250
     FM260300 12005KT P6SM FEW060 SCT250
     FM260700 14003KT 2SM BR OVC002
     FM261500 20009KT P6SM SCT025 BKN050
     FM262000 22008KT P6SM VCTS SCT040CB BKN060 BKN250=



000
FTUS42 KMLB 252320
TAFDAB
TAF
KDAB 252320Z 2600/2624 09008KT P6SM FEW009 SCT080 BKN250
     FM260200 06002KT P6SM SCT008 BKN250
     FM260700 VRB02KT 2SM BR OVC002
     FM261400 20007KT P6SM FEW015 SCT025 BKN050
     FM261900 19006KT P6SM VCTS SCT040CB BKN060 BKN250=



000
FTUS42 KMLB 252320
TAFVRB
TAF
KVRB 252320Z 2600/2624 05008KT P6SM SCT015 BKN250
     FM260200 08003KT P6SM SCT010 BKN250
     FM260600 14003KT P6SM SCT008
      TEMPO 2608/2611 4SM BR BKN008
     FM261400 19009KT P6SM SCT025
     FM262000 15008KT P6SM VCTS SCT040CB BKN060 BKN250=



000
FTUS42 KMLB 252320
TAFVRB
TAF
KVRB 252320Z 2600/2624 05008KT P6SM SCT015 BKN250
     FM260200 08003KT P6SM SCT010 BKN250
     FM260600 14003KT P6SM SCT008
      TEMPO 2608/2611 4SM BR BKN008
     FM261400 19009KT P6SM SCT025
     FM262000 15008KT P6SM VCTS SCT040CB BKN060 BKN250=



000
FTUS42 KMLB 252320
TAFMLB
TAF
KMLB 252320Z 2600/2624 06009KT P6SM BKN250
     FM260300 08006KT P6SM SCT250
     FM260800 17005KT P6SM SCT015
      TEMPO 2610/2612 5SM BR BKN015
     FM261400 19008KT P6SM SCT025
     FM262100 15010KT P6SM VCTS SCT040CB BKN060 BKN250=



    US Dept of Commerce
    National Oceanic and Atmospheric Administration
    National Weather Service
    1325 East West Highway
    Silver Spring, MD 20910
    Page Author: NWS Internet Services Team
Disclaimer
Information Quality
Credits
Glossary
Privacy Policy
Freedom of Information Act (FOIA)
About Us
Career Opportunities